sensor_id;sensor_type;location;lat;lon;timestamp;pressure;altitude;pressure_sealevel;temperature;humidity
38227;BME280;24026;49.446;8.576;2023-03-23T00:01:16;99814.34;;;16.66;43.51
38227;BME280;24026;49.446;8.576;2023-03-23T00:03:40;99808.97;;;16.66;43.59
38227;BME280;24026;49.446;8.576;2023-03-23T00:06:02;99809.25;;;16.65;43.67
38227;BME280;24026;49.446;8.576;2023-03-23T00:08:26;99809.25;;;16.65;43.59
38227;BME280;24026;49.446;8.576;2023-03-23T00:10:50;99814.13;;;16.63;43.83
38227;BME280;24026;49.446;8.576;2023-03-23T00:13:16;99798.81;;;16.63;43.93
38227;BME280;24026;49.446;8.576;2023-03-23T00:15:39;99797.25;;;16.62;43.96
38227;BME280;24026;49.446;8.576;2023-03-23T00:18:01;99799.94;;;16.62;43.73
38227;BME280;24026;49.446;8.576;2023-03-23T00:20:25;99791.59;;;16.64;44.03
38227;BME280;24026;49.446;8.576;2023-03-23T00:22:49;99792.97;;;16.61;44.05
38227;BME280;24026;49.446;8.576;2023-03-23T00:25:09;99789.50;;;16.61;43.87
38227;BME280;24026;49.446;8.576;2023-03-23T00:27:30;99795.94;;;16.60;43.77
38227;BME280;24026;49.446;8.576;2023-03-23T00:29:51;99792.47;;;16.59;44.00
38227;BME280;24026;49.446;8.576;2023-03-23T00:32:15;99788.69;;;16.60;43.98
38227;BME280;24026;49.446;8.576;2023-03-23T00:34:36;99787.88;;;16.60;43.71
38227;BME280;24026;49.446;8.576;2023-03-23T00:36:59;99788.69;;;16.60;43.85
38227;BME280;24026;49.446;8.576;2023-03-23T00:39:19;99783.94;;;16.57;43.89
38227;BME280;24026;49.446;8.576;2023-03-23T00:41:40;99786.63;;;16.57;43.89
38227;BME280;24026;49.446;8.576;2023-03-23T00:44:00;99782.63;;;16.55;44.12
38227;BME280;24026;49.446;8.576;2023-03-23T00:46:20;99775.06;;;16.57;44.13
38227;BME280;24026;49.446;8.576;2023-03-23T00:48:41;99776.66;;;16.58;44.10
38227;BME280;24026;49.446;8.576;2023-03-23T00:51:04;99785.78;;;16.57;43.93
38227;BME280;24026;49.446;8.576;2023-03-23T00:53:26;99783.22;;;16.52;44.14
38227;BME280;24026;49.446;8.576;2023-03-23T00:55:48;99786.09;;;16.55;44.00
38227;BME280;24026;49.446;8.576;2023-03-23T00:58:10;99788.28;;;16.53;44.18
38227;BME280;24026;49.446;8.576;2023-03-23T01:00:30;99786.09;;;16.55;44.10
38227;BME280;24026;49.446;8.576;2023-03-23T01:02:53;99781.00;;;16.54;44.24
38227;BME280;24026;49.446;8.576;2023-03-23T01:05:13;99787.19;;;16.54;44.11
38227;BME280;24026;49.446;8.576;2023-03-23T01:07:36;99781.00;;;16.54;44.19
38227;BME280;24026;49.446;8.576;2023-03-23T01:09:57;99775.66;;;16.54;44.14
38227;BME280;24026;49.446;8.576;2023-03-23T01:12:17;99771.69;;;16.51;44.24
38227;BME280;24026;49.446;8.576;2023-03-23T01:14:39;99771.41;;;16.53;44.29
38227;BME280;24026;49.446;8.576;2023-03-23T01:16:59;99769.00;;;16.51;44.14
38227;BME280;24026;49.446;8.576;2023-03-23T01:19:20;99770.56;;;16.52;44.33
38227;BME280;24026;49.446;8.576;2023-03-23T01:21:40;99769.00;;;16.51;44.35
38227;BME280;24026;49.446;8.576;2023-03-23T01:24:01;99760.19;;;16.51;44.45
38227;BME280;24026;49.446;8.576;2023-03-23T01:26:23;99768.22;;;16.51;44.24
38227;BME280;24026;49.446;8.576;2023-03-23T01:28:44;99765.84;;;16.49;44.15
38227;BME280;24026;49.446;8.576;2023-03-23T01:31:07;99762.34;;;16.48;44.41
38227;BME280;24026;49.446;8.576;2023-03-23T01:33:29;99748.13;;;16.48;44.40
38227;BME280;24026;49.446;8.576;2023-03-23T01:35:49;99751.91;;;16.47;44.45
38227;BME280;24026;49.446;8.576;2023-03-23T01:38:10;99750.03;;;16.47;44.26
38227;BME280;24026;49.446;8.576;2023-03-23T01:40:31;99749.22;;;16.47;44.53
38227;BME280;24026;49.446;8.576;2023-03-23T01:42:51;99748.44;;;16.46;44.38
38227;BME280;24026;49.446;8.576;2023-03-23T01:45:32;99744.25;;;16.40;44.54
38227;BME280;24026;49.446;8.576;2023-03-23T01:48:05;99735.91;;;16.42;44.61
38227;BME280;24026;49.446;8.576;2023-03-23T01:50:28;99735.59;;;16.43;44.56
38227;BME280;24026;49.446;8.576;2023-03-23T01:52:55;99731.34;;;16.42;44.45
38227;BME280;24026;49.446;8.576;2023-03-23T01:55:18;99729.16;;;16.44;44.44
38227;BME280;24026;49.446;8.576;2023-03-23T01:57:40;99729.16;;;16.44;44.50
38227;BME280;24026;49.446;8.576;2023-03-23T02:00:05;99723.59;;;16.41;44.46
38227;BME280;24026;49.446;8.576;2023-03-23T02:02:35;99709.09;;;16.42;44.68
38227;BME280;24026;49.446;8.576;2023-03-23T02:04:59;99713.16;;;16.39;44.69
38227;BME280;24026;49.446;8.576;2023-03-23T02:07:22;99707.81;;;16.39;44.52
38227;BME280;24026;49.446;8.576;2023-03-23T02:09:43;99705.91;;;16.40;44.60
38227;BME280;24026;49.446;8.576;2023-03-23T02:12:04;99711.28;;;16.40;44.42
38227;BME280;24026;49.446;8.576;2023-03-23T02:14:26;99708.88;;;16.38;44.89
38227;BME280;24026;49.446;8.576;2023-03-23T02:17:00;99711.56;;;16.38;44.79
38227;BME280;24026;49.446;8.576;2023-03-23T02:19:48;99703.63;;;16.33;44.72
38227;BME280;24026;49.446;8.576;2023-03-23T02:22:29;99708.69;;;16.35;44.69
38227;BME280;24026;49.446;8.576;2023-03-23T02:28:16;99717.81;;;16.34;44.61
38227;BME280;24026;49.446;8.576;2023-03-23T02:36:04;99719.31;;;16.40;44.62
38227;BME280;24026;49.446;8.576;2023-03-23T02:38:32;99713.47;;;16.38;44.72
38227;BME280;24026;49.446;8.576;2023-03-23T02:40:56;99703.22;;;16.40;44.55
38227;BME280;24026;49.446;8.576;2023-03-23T02:43:22;99705.13;;;16.39;44.63
38227;BME280;24026;49.446;8.576;2023-03-23T02:45:45;99703.81;;;16.37;44.80
38227;BME280;24026;49.446;8.576;2023-03-23T02:48:06;99689.13;;;16.34;45.00
38227;BME280;24026;49.446;8.576;2023-03-23T02:50:29;99682.16;;;16.33;44.76
38227;BME280;24026;49.446;8.576;2023-03-23T02:52:53;99675.19;;;16.32;45.02
38227;BME280;24026;49.446;8.576;2023-03-23T02:55:16;99675.53;;;16.30;45.06
38227;BME280;24026;49.446;8.576;2023-03-23T02:57:38;99671.53;;;16.28;45.08
38227;BME280;24026;49.446;8.576;2023-03-23T02:59:59;99680.88;;;16.30;45.02
38227;BME280;24026;49.446;8.576;2023-03-23T03:04:49;99668.84;;;16.28;45.08
38227;BME280;24026;49.446;8.576;2023-03-23T03:08:23;99677.50;;;16.25;45.11
38227;BME280;24026;49.446;8.576;2023-03-23T03:10:37;99673.72;;;16.26;45.13
38227;BME280;24026;49.446;8.576;2023-03-23T03:13:16;99680.16;;;16.25;45.14
38227;BME280;24026;49.446;8.576;2023-03-23T03:15:47;99672.63;;;16.27;45.00
38227;BME280;24026;49.446;8.576;2023-03-23T03:18:24;99672.63;;;16.27;44.97
38227;BME280;24026;49.446;8.576;2023-03-23T03:20:49;99663.78;;;16.26;45.04
38227;BME280;24026;49.446;8.576;2023-03-23T03:23:13;99656.03;;;16.25;45.07
38227;BME280;24026;49.446;8.576;2023-03-23T03:25:34;99663.31;;;16.24;45.11
38227;BME280;24026;49.446;8.576;2023-03-23T03:27:55;99673.72;;;16.26;45.04
38227;BME280;24026;49.446;8.576;2023-03-23T03:30:20;99684.44;;;16.26;45.11
38227;BME280;24026;49.446;8.576;2023-03-23T03:32:46;99672.91;;;16.25;45.10
38227;BME280;24026;49.446;8.576;2023-03-23T03:35:09;99674.81;;;16.25;45.16
38227;BME280;24026;49.446;8.576;2023-03-23T03:37:38;99680.47;;;16.23;45.37
38227;BME280;24026;49.446;8.576;2023-03-23T03:39:59;99680.16;;;16.25;45.13
38227;BME280;24026;49.446;8.576;2023-03-23T03:42:20;99679.19;;;16.21;45.18
38227;BME280;24026;49.446;8.576;2023-03-23T03:44:41;99680.75;;;16.22;45.34
38227;BME280;24026;49.446;8.576;2023-03-23T03:47:01;99683.44;;;16.22;45.21
38227;BME280;24026;49.446;8.576;2023-03-23T03:49:22;99670.03;;;16.22;45.01
38227;BME280;24026;49.446;8.576;2023-03-23T03:51:42;99673.53;;;16.22;45.26
38227;BME280;24026;49.446;8.576;2023-03-23T03:54:03;99675.41;;;16.22;45.33
38227;BME280;24026;49.446;8.576;2023-03-23T03:56:24;99662.28;;;16.20;45.47
38227;BME280;24026;49.446;8.576;2023-03-23T03:58:46;99670.31;;;16.20;45.35
38227;BME280;24026;49.446;8.576;2023-03-23T04:01:09;99668.75;;;16.19;45.34
38227;BME280;24026;49.446;8.576;2023-03-23T04:03:33;99666.88;;;16.20;45.20
38227;BME280;24026;49.446;8.576;2023-03-23T04:05:54;99666.06;;;16.19;45.40
38227;BME280;24026;49.446;8.576;2023-03-23T04:08:19;99669.53;;;16.20;45.34
38227;BME280;24026;49.446;8.576;2023-03-23T04:10:42;99677.09;;;16.18;45.24
38227;BME280;24026;49.446;8.576;2023-03-23T04:13:02;99670.63;;;16.19;45.43
38227;BME280;24026;49.446;8.576;2023-03-23T04:15:25;99671.72;;;16.18;45.33
38227;BME280;24026;49.446;8.576;2023-03-23T04:17:46;99679.78;;;16.18;45.21
38227;BME280;24026;49.446;8.576;2023-03-23T04:20:07;99680.56;;;16.18;45.53
38227;BME280;24026;49.446;8.576;2023-03-23T04:22:33;99684.00;;;16.05;45.78
38227;BME280;24026;49.446;8.576;2023-03-23T04:24:54;99691.19;;;16.09;45.84
38227;BME280;24026;49.446;8.576;2023-03-23T04:27:14;99689.00;;;16.11;45.78
38227;BME280;24026;49.446;8.576;2023-03-23T04:29:35;99699.41;;;16.13;45.63
38227;BME280;24026;49.446;8.576;2023-03-23T04:31:55;99694.84;;;16.14;45.74
38227;BME280;24026;49.446;8.576;2023-03-23T04:34:16;99694.34;;;16.11;45.68
38227;BME280;24026;49.446;8.576;2023-03-23T04:36:38;99700.81;;;16.10;45.72
38227;BME280;24026;49.446;8.576;2023-03-23T04:38:58;99692.78;;;16.10;45.81
38227;BME280;24026;49.446;8.576;2023-03-23T04:41:19;99697.53;;;16.14;45.86
38227;BME280;24026;49.446;8.576;2023-03-23T04:43:40;99704.00;;;16.13;45.95
38227;BME280;24026;49.446;8.576;2023-03-23T04:46:01;99702.88;;;16.14;45.79
38227;BME280;24026;49.446;8.576;2023-03-23T04:48:26;99702.69;;;16.10;46.08
38227;BME280;24026;49.446;8.576;2023-03-23T04:50:47;99708.84;;;16.10;46.05
38227;BME280;24026;49.446;8.576;2023-03-23T04:53:08;99708.84;;;16.10;45.93
38227;BME280;24026;49.446;8.576;2023-03-23T04:55:31;99709.66;;;16.11;46.16
38227;BME280;24026;49.446;8.576;2023-03-23T04:57:52;99716.56;;;16.12;46.04
38227;BME280;24026;49.446;8.576;2023-03-23T05:00:13;99713.91;;;16.12;46.22
38227;BME280;24026;49.446;8.576;2023-03-23T05:02:36;99713.09;;;16.11;46.15
38227;BME280;24026;49.446;8.576;2023-03-23T05:04:57;99730.78;;;16.13;46.16
38227;BME280;24026;49.446;8.576;2023-03-23T05:07:18;99741.53;;;16.13;46.24
38227;BME280;24026;49.446;8.576;2023-03-23T05:09:38;99738.34;;;16.10;46.32
38227;BME280;24026;49.446;8.576;2023-03-23T05:12:06;99732.16;;;16.10;46.37
38227;BME280;24026;49.446;8.576;2023-03-23T05:14:27;99716.38;;;16.08;46.63
38227;BME280;24026;49.446;8.576;2023-03-23T05:16:47;99724.94;;;16.10;46.55
38227;BME280;24026;49.446;8.576;2023-03-23T05:19:09;99733.56;;;16.07;46.96
38227;BME280;24026;49.446;8.576;2023-03-23T05:21:29;99723.13;;;16.06;46.90
38227;BME280;24026;49.446;8.576;2023-03-23T05:23:50;99725.81;;;16.06;46.78
38227;BME280;24026;49.446;8.576;2023-03-23T05:26:14;99726.59;;;16.06;46.89
38227;BME280;24026;49.446;8.576;2023-03-23T05:28:35;99731.19;;;16.06;46.83
38227;BME280;24026;49.446;8.576;2023-03-23T05:30:56;99726.09;;;16.04;47.08
38227;BME280;24026;49.446;8.576;2023-03-23T05:33:17;99724.22;;;16.05;47.04
38227;BME280;24026;49.446;8.576;2023-03-23T05:35:37;99728.78;;;16.04;47.08
38227;BME280;24026;49.446;8.576;2023-03-23T05:37:57;99727.19;;;16.03;47.04
38227;BME280;24026;49.446;8.576;2023-03-23T05:40:18;99728.00;;;16.04;46.91
38227;BME280;24026;49.446;8.576;2023-03-23T05:42:41;99735.72;;;16.05;47.07
38227;BME280;24026;49.446;8.576;2023-03-23T05:45:03;99728.78;;;16.04;47.33
38227;BME280;24026;49.446;8.576;2023-03-23T05:47:23;99726.09;;;16.04;47.29
38227;BME280;24026;49.446;8.576;2023-03-23T05:49:45;99734.72;;;16.01;47.29
38227;BME280;24026;49.446;8.576;2023-03-23T05:52:06;99736.03;;;16.04;47.27
38227;BME280;24026;49.446;8.576;2023-03-23T05:54:26;99722.13;;;16.02;47.37
38227;BME280;24026;49.446;8.576;2023-03-23T05:56:47;99724.78;;;16.02;47.19
38227;BME280;24026;49.446;8.576;2023-03-23T05:59:09;99741.69;;;16.02;47.39
38227;BME280;24026;49.446;8.576;2023-03-23T06:01:31;99742.78;;;16.01;47.46
38227;BME280;24026;49.446;8.576;2023-03-23T06:03:51;99739.00;;;16.02;47.33
38227;BME280;24026;49.446;8.576;2023-03-23T06:06:14;99746.53;;;16.00;47.37
38227;BME280;24026;49.446;8.576;2023-03-23T06:08:34;99752.56;;;15.92;47.75
38227;BME280;24026;49.446;8.576;2023-03-23T06:10:57;99758.75;;;16.06;47.50
38227;BME280;24026;49.446;8.576;2023-03-23T06:13:17;99758.97;;;16.10;47.36
38227;BME280;24026;49.446;8.576;2023-03-23T06:15:38;99771.22;;;16.16;47.00
38227;BME280;24026;49.446;8.576;2023-03-23T06:18:02;99774.09;;;16.20;47.06
38227;BME280;24026;49.446;8.576;2023-03-23T06:20:23;99769.81;;;16.19;47.27
38227;BME280;24026;49.446;8.576;2023-03-23T06:22:44;99762.88;;;16.18;47.26
38227;BME280;24026;49.446;8.576;2023-03-23T06:25:06;99758.50;;;16.22;47.29
38227;BME280;24026;49.446;8.576;2023-03-23T06:27:27;99772.81;;;16.17;47.74
38227;BME280;24026;49.446;8.576;2023-03-23T06:29:49;99773.09;;;16.16;47.57
38227;BME280;24026;49.446;8.576;2023-03-23T06:32:11;99768.72;;;16.20;47.57
38227;BME280;24026;49.446;8.576;2023-03-23T06:34:32;99763.38;;;16.20;47.70
38227;BME280;24026;49.446;8.576;2023-03-23T06:36:53;99766.84;;;16.20;47.77
38227;BME280;24026;49.446;8.576;2023-03-23T06:39:13;99771.41;;;16.20;47.90
38227;BME280;24026;49.446;8.576;2023-03-23T06:41:34;99774.47;;;16.13;48.53
38227;BME280;24026;49.446;8.576;2023-03-23T06:43:54;99783.81;;;16.16;48.19
38227;BME280;24026;49.446;8.576;2023-03-23T06:46:15;99768.31;;;16.13;48.43
38227;BME280;24026;49.446;8.576;2023-03-23T06:48:35;99772.28;;;16.15;48.37
38227;BME280;24026;49.446;8.576;2023-03-23T06:50:56;99764.44;;;16.19;48.14
38227;BME280;24026;49.446;8.576;2023-03-23T06:53:17;99782.44;;;16.18;48.24
38227;BME280;24026;49.446;8.576;2023-03-23T06:55:38;99790.47;;;16.18;48.24
38227;BME280;24026;49.446;8.576;2023-03-23T06:57:58;99787.50;;;16.20;48.24
38227;BME280;24026;49.446;8.576;2023-03-23T07:00:21;99791.78;;;16.21;48.15
38227;BME280;24026;49.446;8.576;2023-03-23T07:02:43;99800.63;;;16.21;48.23
38227;BME280;24026;49.446;8.576;2023-03-23T07:05:04;99798.44;;;16.23;48.25
38227;BME280;24026;49.446;8.576;2023-03-23T07:07:25;99802.44;;;16.26;48.15
38227;BME280;24026;49.446;8.576;2023-03-23T07:09:46;99806.69;;;16.27;48.13
38227;BME280;24026;49.446;8.576;2023-03-23T07:12:06;99816.31;;;16.28;47.93
38227;BME280;24026;49.446;8.576;2023-03-23T07:14:28;99818.44;;;16.31;47.96
38227;BME280;24026;49.446;8.576;2023-03-23T07:16:49;99823.00;;;16.30;48.06
38227;BME280;24026;49.446;8.576;2023-03-23T07:19:10;99832.63;;;16.32;47.97
38227;BME280;24026;49.446;8.576;2023-03-23T07:21:30;99839.09;;;16.30;47.90
38227;BME280;24026;49.446;8.576;2023-03-23T07:23:51;99850.31;;;16.33;47.93
38227;BME280;24026;49.446;8.576;2023-03-23T07:26:11;99841.69;;;16.36;48.00
38227;BME280;24026;49.446;8.576;2023-03-23T07:28:32;99826.69;;;16.35;47.97
38227;BME280;24026;49.446;8.576;2023-03-23T07:30:53;99834.72;;;16.35;48.02
38227;BME280;24026;49.446;8.576;2023-03-23T07:33:13;99843.25;;;16.37;48.01
38227;BME280;24026;49.446;8.576;2023-03-23T07:35:34;99840.28;;;16.38;48.06
38227;BME280;24026;49.446;8.576;2023-03-23T07:37:54;99845.66;;;16.38;48.14
38227;BME280;24026;49.446;8.576;2023-03-23T07:40:15;99847.84;;;16.36;48.17
38227;BME280;24026;49.446;8.576;2023-03-23T07:42:36;99849.44;;;16.37;48.03
38227;BME280;24026;49.446;8.576;2023-03-23T07:44:56;99846.75;;;16.37;47.99
38227;BME280;24026;49.446;8.576;2023-03-23T07:47:17;99852.63;;;16.39;48.20
38227;BME280;24026;49.446;8.576;2023-03-23T07:49:37;99860.66;;;16.39;48.27
38227;BME280;24026;49.446;8.576;2023-03-23T07:51:59;99872.75;;;16.37;48.34
38227;BME280;24026;49.446;8.576;2023-03-23T07:54:23;99872.97;;;16.40;48.21
38227;BME280;24026;49.446;8.576;2023-03-23T07:56:44;99870.81;;;16.42;48.02
38227;BME280;24026;49.446;8.576;2023-03-23T07:59:06;99879.94;;;16.41;48.15
38227;BME280;24026;49.446;8.576;2023-03-23T08:01:26;99882.63;;;16.41;48.42
38227;BME280;24026;49.446;8.576;2023-03-23T08:03:46;99878.84;;;16.42;48.43
38227;BME280;24026;49.446;8.576;2023-03-23T08:06:07;99879.34;;;16.44;48.25
38227;BME280;24026;49.446;8.576;2023-03-23T08:08:28;99878.84;;;16.42;48.36
38227;BME280;24026;49.446;8.576;2023-03-23T08:10:49;99883.69;;;16.40;48.57
38227;BME280;24026;49.446;8.576;2023-03-23T08:13:09;99872.47;;;16.38;48.67
38227;BME280;24026;49.446;8.576;2023-03-23T08:15:30;99885.28;;;16.41;48.50
38227;BME280;24026;49.446;8.576;2023-03-23T08:17:50;99887.69;;;16.43;48.36
38227;BME280;24026;49.446;8.576;2023-03-23T08:20:12;99888.19;;;16.45;48.50
38227;BME280;24026;49.446;8.576;2023-03-23T08:22:33;99895.72;;;16.43;48.63
38227;BME280;24026;49.446;8.576;2023-03-23T08:24:53;99892.75;;;16.44;48.60
38227;BME280;24026;49.446;8.576;2023-03-23T08:27:14;99895.72;;;16.43;48.58
38227;BME280;24026;49.446;8.576;2023-03-23T08:29:35;99900.03;;;16.44;48.69
38227;BME280;24026;49.446;8.576;2023-03-23T08:31:57;99902.47;;;16.40;48.89
38227;BME280;24026;49.446;8.576;2023-03-23T08:34:18;99904.66;;;16.38;49.16
38227;BME280;24026;49.446;8.576;2023-03-23T08:36:38;99900.53;;;16.46;48.89
38227;BME280;24026;49.446;8.576;2023-03-23T08:38:58;99899.69;;;16.45;49.04
38227;BME280;24026;49.446;8.576;2023-03-23T08:41:19;99905.88;;;16.46;49.26
38227;BME280;24026;49.446;8.576;2023-03-23T08:43:40;99903.69;;;16.48;49.57
38227;BME280;24026;49.446;8.576;2023-03-23T08:46:00;99905.31;;;16.49;49.34
38227;BME280;24026;49.446;8.576;2023-03-23T08:48:26;99918.72;;;16.49;49.46
38227;BME280;24026;49.446;8.576;2023-03-23T08:50:48;99915.44;;;16.52;49.33
38227;BME280;24026;49.446;8.576;2023-03-23T08:53:08;99917.03;;;16.53;49.39
38227;BME280;24026;49.446;8.576;2023-03-23T08:55:29;99918.63;;;16.54;49.57
38227;BME280;24026;49.446;8.576;2023-03-23T08:57:49;99912.44;;;16.54;49.51
38227;BME280;24026;49.446;8.576;2023-03-23T09:00:13;99918.84;;;16.58;49.45
38227;BME280;24026;49.446;8.576;2023-03-23T09:02:35;99910.78;;;16.58;49.38
38227;BME280;24026;49.446;8.576;2023-03-23T09:04:55;99916.53;;;16.51;50.07
38227;BME280;24026;49.446;8.576;2023-03-23T09:07:16;99918.19;;;16.47;50.35
38227;BME280;24026;49.446;8.576;2023-03-23T09:09:37;99919.00;;;16.47;51.20
38227;BME280;24026;49.446;8.576;2023-03-23T09:11:59;99931.97;;;16.59;50.23
38227;BME280;24026;49.446;8.576;2023-03-23T09:14:20;99930.56;;;16.62;50.34
38227;BME280;24026;49.446;8.576;2023-03-23T09:16:40;99935.84;;;16.67;49.99
38227;BME280;24026;49.446;8.576;2023-03-23T09:19:01;99934.28;;;16.66;50.31
38227;BME280;24026;49.446;8.576;2023-03-23T09:21:24;99933.78;;;16.64;50.48
38227;BME280;24026;49.446;8.576;2023-03-23T09:23:45;99939.50;;;16.57;50.66
38227;BME280;24026;49.446;8.576;2023-03-23T09:26:05;99937.53;;;16.63;50.71
38227;BME280;24026;49.446;8.576;2023-03-23T09:28:26;99950.09;;;16.67;50.37
38227;BME280;24026;49.446;8.576;2023-03-23T09:30:47;99940.13;;;16.68;50.55
38227;BME280;24026;49.446;8.576;2023-03-23T09:33:07;99943.59;;;16.68;50.44
38227;BME280;24026;49.446;8.576;2023-03-23T09:35:29;99947.47;;;16.62;50.66
38227;BME280;24026;49.446;8.576;2023-03-23T09:37:51;99960.91;;;16.62;50.84
38227;BME280;24026;49.446;8.576;2023-03-23T09:40:17;99953.34;;;16.64;50.72
38227;BME280;24026;49.446;8.576;2023-03-23T09:48:10;99968.13;;;16.62;50.54
38227;BME280;24026;49.446;8.576;2023-03-23T09:50:37;99961.31;;;16.70;50.47
38227;BME280;24026;49.446;8.576;2023-03-23T09:55:30;99965.00;;;16.74;50.37
38227;BME280;24026;49.446;8.576;2023-03-23T10:00:43;99956.53;;;16.66;50.93
38227;BME280;24026;49.446;8.576;2023-03-23T10:03:14;99954.78;;;16.76;50.71
38227;BME280;24026;49.446;8.576;2023-03-23T10:05:39;99950.91;;;16.82;50.34
38227;BME280;24026;49.446;8.576;2023-03-23T10:08:09;99951.72;;;16.82;50.44
38227;BME280;24026;49.446;8.576;2023-03-23T10:13:53;99945.00;;;16.85;50.20
38227;BME280;24026;49.446;8.576;2023-03-23T10:16:38;99951.97;;;16.86;50.10
38227;BME280;24026;49.446;8.576;2023-03-23T10:21:30;99938.38;;;16.96;50.16
38227;BME280;24026;49.446;8.576;2023-03-23T10:24:01;99937.34;;;16.92;50.08
38227;BME280;24026;49.446;8.576;2023-03-23T10:28:46;99932.41;;;16.80;50.55
38227;BME280;24026;49.446;8.576;2023-03-23T10:31:13;99933.56;;;16.93;50.35
38227;BME280;24026;49.446;8.576;2023-03-23T10:33:38;99933.50;;;16.98;50.16
38227;BME280;24026;49.446;8.576;2023-03-23T10:36:03;99930.31;;;16.96;50.01
38227;BME280;24026;49.446;8.576;2023-03-23T10:38:45;99923.72;;;16.89;50.50
38227;BME280;24026;49.446;8.576;2023-03-23T10:41:14;99933.78;;;16.97;50.04
38227;BME280;24026;49.446;8.576;2023-03-23T10:43:35;99922.47;;;17.00;50.11
38227;BME280;24026;49.446;8.576;2023-03-23T10:46:17;99926.31;;;16.94;50.63
38227;BME280;24026;49.446;8.576;2023-03-23T10:48:43;99931.53;;;17.04;50.53
38227;BME280;24026;49.446;8.576;2023-03-23T10:51:10;99937.47;;;17.01;50.55
38227;BME280;24026;49.446;8.576;2023-03-23T10:53:37;99938.06;;;16.98;50.61
38227;BME280;24026;49.446;8.576;2023-03-23T10:55:59;99944.34;;;17.07;50.38
38227;BME280;24026;49.446;8.576;2023-03-23T10:58:30;99951.59;;;17.07;50.17
38227;BME280;24026;49.446;8.576;2023-03-23T11:00:52;99946.94;;;17.12;50.33
38227;BME280;24026;49.446;8.576;2023-03-23T11:05:52;99950.34;;;17.18;49.96
38227;BME280;24026;49.446;8.576;2023-03-23T11:08:16;99950.34;;;17.18;50.01
38227;BME280;24026;49.446;8.576;2023-03-23T11:10:39;99956.41;;;17.23;49.83
38227;BME280;24026;49.446;8.576;2023-03-23T11:13:01;99958.78;;;17.25;49.96
38227;BME280;24026;49.446;8.576;2023-03-23T11:15:39;99949.47;;;17.22;49.96
38227;BME280;24026;49.446;8.576;2023-03-23T11:18:03;99952.44;;;17.21;49.97
38227;BME280;24026;49.446;8.576;2023-03-23T11:20:25;99951.59;;;17.07;50.68
38227;BME280;24026;49.446;8.576;2023-03-23T11:22:47;99966.25;;;17.14;50.57
38227;BME280;24026;49.446;8.576;2023-03-23T11:25:12;99966.75;;;17.16;50.29
38227;BME280;24026;49.446;8.576;2023-03-23T11:27:34;99971.81;;;17.18;50.63
38227;BME280;24026;49.446;8.576;2023-03-23T11:30:07;99962.97;;;17.17;50.63
38227;BME280;24026;49.446;8.576;2023-03-23T11:32:29;99964.47;;;17.23;50.49
38227;BME280;24026;49.446;8.576;2023-03-23T11:34:56;99960.88;;;17.14;50.59
38227;BME280;24026;49.446;8.576;2023-03-23T11:37:33;99956.59;;;17.13;50.75
38227;BME280;24026;49.446;8.576;2023-03-23T11:40:00;99956.50;;;17.18;50.64
38227;BME280;24026;49.446;8.576;2023-03-23T11:42:24;99954.00;;;17.22;50.63
38227;BME280;24026;49.446;8.576;2023-03-23T11:44:49;99939.09;;;17.16;50.83
38227;BME280;24026;49.446;8.576;2023-03-23T11:47:24;99944.19;;;17.17;50.81
38227;BME280;24026;49.446;8.576;2023-03-23T11:55:19;99942.88;;;17.15;50.83
38227;BME280;24026;49.446;8.576;2023-03-23T11:57:41;99943.38;;;17.17;51.12
38227;BME280;24026;49.446;8.576;2023-03-23T12:00:20;99942.09;;;17.14;51.10
38227;BME280;24026;49.446;8.576;2023-03-23T12:11:17;99941.25;;;17.00;51.31
38227;BME280;24026;49.446;8.576;2023-03-23T12:21:51;99935.69;;;17.10;51.16
38227;BME280;24026;49.446;8.576;2023-03-23T12:37:02;99929.63;;;17.04;51.49
38227;BME280;24026;49.446;8.576;2023-03-23T12:48:03;99921.69;;;17.13;51.30
38227;BME280;24026;49.446;8.576;2023-03-23T12:50:32;99911.03;;;17.08;51.37
38227;BME280;24026;49.446;8.576;2023-03-23T12:57:51;99904.19;;;17.16;51.38
38227;BME280;24026;49.446;8.576;2023-03-23T13:00:30;99905.59;;;17.13;51.59
38227;BME280;24026;49.446;8.576;2023-03-23T13:03:43;99879.03;;;17.12;51.78
38227;BME280;24026;49.446;8.576;2023-03-23T13:08:33;99885.56;;;17.06;52.10
38227;BME280;24026;49.446;8.576;2023-03-23T13:11:00;99882.81;;;17.11;51.73
38227;BME280;24026;49.446;8.576;2023-03-23T13:16:12;99878.44;;;17.15;51.91
38227;BME280;24026;49.446;8.576;2023-03-23T13:21:53;99888.25;;;17.06;51.79
38227;BME280;24026;49.446;8.576;2023-03-23T13:24:10;99883.28;;;16.99;52.33
38227;BME280;24026;49.446;8.576;2023-03-23T13:26:37;99887.47;;;17.05;52.04
38227;BME280;24026;49.446;8.576;2023-03-23T13:29:05;99870.69;;;17.13;51.59
38227;BME280;24026;49.446;8.576;2023-03-23T13:31:31;99881.41;;;16.99;52.33
38227;BME280;24026;49.446;8.576;2023-03-23T13:33:58;99875.56;;;17.11;51.98
38227;BME280;24026;49.446;8.576;2023-03-23T13:38:50;99871.97;;;17.16;51.79
38227;BME280;24026;49.446;8.576;2023-03-23T13:41:13;99881.13;;;17.15;51.79
38227;BME280;24026;49.446;8.576;2023-03-23T13:43:35;99885.91;;;17.18;52.06
38227;BME280;24026;49.446;8.576;2023-03-23T13:48:41;99888.00;;;17.21;51.48
38227;BME280;24026;49.446;8.576;2023-03-23T13:51:03;99898.44;;;17.22;51.73
38227;BME280;24026;49.446;8.576;2023-03-23T13:53:42;99885.91;;;17.18;52.02
38227;BME280;24026;49.446;8.576;2023-03-23T13:59:14;99875.66;;;17.20;51.76
38227;BME280;24026;49.446;8.576;2023-03-23T14:01:37;99870.47;;;17.23;51.81
38227;BME280;24026;49.446;8.576;2023-03-23T14:04:06;99870.28;;;17.20;51.84
38227;BME280;24026;49.446;8.576;2023-03-23T14:06:33;99870.28;;;17.20;51.94
38227;BME280;24026;49.446;8.576;2023-03-23T14:08:55;99865.09;;;17.23;51.76
38227;BME280;24026;49.446;8.576;2023-03-23T14:11:20;99868.91;;;17.22;51.91
38227;BME280;24026;49.446;8.576;2023-03-23T14:13:58;99866.09;;;17.14;52.24
38227;BME280;24026;49.446;8.576;2023-03-23T14:16:28;99864.31;;;17.23;52.20
38227;BME280;24026;49.446;8.576;2023-03-23T14:18:59;99857.03;;;17.23;51.94